Time;durP1;ratioP1;P1;durP2;ratioP2;P2;SDS_P1;SDS_P2;PMS_P1;PMS_P2;Temp;Humidity;BMP_temperature;BMP_pressure;BME280_temperature;BME280_humidity;BME280_pressure;Samples;Min_cycle;Max_cycle;Signal;HPM_P1;HPM_P2
2021/07/26 00:00:37;;;;;;;6.0;5.5;;;;;;;20.5;63.3;100630;;;;
2021/07/26 00:02:37;;;;;;;6.0;5.5;;;;;;;20.6;62.8;100630;;;;
2021/07/26 00:04:37;;;;;;;6.0;5.5;;;;;;;20.8;62.7;100630;;;;
2021/07/26 00:06:36;;;;;;;6.0;5.5;;;;;;;20.6;63.2;100630;;;;
2021/07/26 00:10:36;;;;;;;6.0;5.5;;;;;;;20.7;61.7;100630;;;;
2021/07/26 00:12:36;;;;;;;6.6;6.0;;;;;;;20.8;63.1;100620;;;;
2021/07/26 00:14:37;;;;;;;6.6;6.0;;;;;;;20.6;62.2;100620;;;;
2021/07/26 00:16:36;;;;;;;6.6;6.0;;;;;;;20.7;61.5;100620;;;;
2021/07/26 00:18:36;;;;;;;6.6;6.0;;;;;;;20.8;60.6;100620;;;;
2021/07/26 00:20:36;;;;;;;6.6;6.0;;;;;;;20.7;61.6;100620;;;;
2021/07/26 00:22:38;;;;;;;6.6;6.0;;;;;;;20.8;60.7;100620;;;;
2021/07/26 00:24:36;;;;;;;6.6;6.0;;;;;;;20.7;61.9;100620;;;;
2021/07/26 00:30:37;;;;;;;6.6;6.0;;;;;;;20.6;62.3;100610;;;;
2021/07/26 00:32:36;;;;;;;7.4;6.7;;;;;;;20.8;60.1;100620;;;;
2021/07/26 00:34:36;;;;;;;7.4;6.7;;;;;;;20.6;61.4;100610;;;;
2021/07/26 00:38:36;;;;;;;7.4;6.7;;;;;;;20.5;62.8;100600;;;;
2021/07/26 00:46:36;;;;;;;7.4;6.7;;;;;;;20.4;62.9;100590;;;;
2021/07/26 00:48:36;;;;;;;7.4;6.7;;;;;;;20.2;64.0;100600;;;;
2021/07/26 00:50:36;;;;;;;7.4;6.7;;;;;;;20.3;63.7;100600;;;;
2021/07/26 00:52:36;;;;;;;9.0;7.7;;;;;;;20.5;62.5;100600;;;;
2021/07/26 00:54:36;;;;;;;9.0;7.7;;;;;;;20.3;64.1;100600;;;;
2021/07/26 00:56:36;;;;;;;9.0;7.7;;;;;;;20.1;65.3;100600;;;;
2021/07/26 00:58:36;;;;;;;9.0;7.7;;;;;;;20.2;63.8;100600;;;;
2021/07/26 01:02:36;;;;;;;9.0;7.7;;;;;;;20.3;62.7;100610;;;;
2021/07/26 01:04:36;;;;;;;9.0;7.7;;;;;;;20.2;64.6;100610;;;;
2021/07/26 01:06:36;;;;;;;9.0;7.7;;;;;;;20.1;63.5;100610;;;;
2021/07/26 01:08:36;;;;;;;9.0;7.7;;;;;;;19.9;65.5;100610;;;;
2021/07/26 01:10:36;;;;;;;9.0;7.7;;;;;;;19.8;66.7;100620;;;;
2021/07/26 01:12:37;;;;;;;8.0;7.3;;;;;;;20.1;64.8;100610;;;;
2021/07/26 01:14:36;;;;;;;8.0;7.3;;;;;;;20.0;64.7;100610;;;;
2021/07/26 01:18:36;;;;;;;8.0;7.3;;;;;;;19.9;65.3;100610;;;;
2021/07/26 01:20:36;;;;;;;8.0;7.3;;;;;;;20.0;64.8;100610;;;;
2021/07/26 01:24:37;;;;;;;8.0;7.3;;;;;;;19.9;64.5;100610;;;;
2021/07/26 01:26:36;;;;;;;8.0;7.3;;;;;;;20.0;64.3;100620;;;;
2021/07/26 01:32:36;;;;;;;9.5;7.7;;;;;;;20.1;61.8;100620;;;;
2021/07/26 01:36:36;;;;;;;9.5;7.7;;;;;;;20.0;62.5;100620;;;;
2021/07/26 01:40:38;;;;;;;9.5;7.7;;;;;;;19.8;64.4;100620;;;;
2021/07/26 01:44:36;;;;;;;9.5;7.7;;;;;;;19.7;65.5;100620;;;;
2021/07/26 01:46:36;;;;;;;9.5;7.7;;;;;;;19.8;63.7;100620;;;;
2021/07/26 01:50:36;;;;;;;9.5;7.7;;;;;;;19.9;62.9;100620;;;;
2021/07/26 01:52:36;;;;;;;8.5;7.7;;;;;;;20.0;62.0;100620;;;;
2021/07/26 01:54:36;;;;;;;8.5;7.7;;;;;;;19.9;62.9;100610;;;;
2021/07/26 02:02:36;;;;;;;8.5;7.7;;;;;;;19.8;63.9;100630;;;;
2021/07/26 02:04:36;;;;;;;8.5;7.7;;;;;;;19.9;63.3;100630;;;;
2021/07/26 02:06:36;;;;;;;8.5;7.7;;;;;;;19.7;64.0;100630;;;;
2021/07/26 02:08:36;;;;;;;8.5;7.7;;;;;;;19.6;65.1;100630;;;;
2021/07/26 02:10:36;;;;;;;8.5;7.7;;;;;;;19.7;64.7;100630;;;;
2021/07/26 02:12:36;;;;;;;9.0;7.8;;;;;;;19.9;63.5;100630;;;;
2021/07/26 02:14:36;;;;;;;9.0;7.8;;;;;;;19.6;64.1;100630;;;;
2021/07/26 02:16:36;;;;;;;9.0;7.8;;;;;;;19.7;63.6;100630;;;;
2021/07/26 02:18:36;;;;;;;9.0;7.8;;;;;;;19.8;62.2;100630;;;;
2021/07/26 02:22:37;;;;;;;9.0;7.8;;;;;;;19.7;63.0;100640;;;;
2021/07/26 02:28:36;;;;;;;9.0;7.8;;;;;;;19.8;63.1;100640;;;;
2021/07/26 02:34:36;;;;;;;8.0;7.3;;;;;;;19.7;63.7;100640;;;;
2021/07/26 02:36:38;;;;;;;8.0;7.3;;;;;;;19.6;64.0;100640;;;;
2021/07/26 02:40:37;;;;;;;8.0;7.3;;;;;;;19.5;64.5;100640;;;;
2021/07/26 02:42:36;;;;;;;8.0;7.3;;;;;;;19.6;65.2;100630;;;;
2021/07/26 02:46:36;;;;;;;8.0;7.3;;;;;;;19.4;64.8;100630;;;;
2021/07/26 02:48:36;;;;;;;8.0;7.3;;;;;;;19.5;65.4;100630;;;;
2021/07/26 02:52:36;;;;;;;7.7;7.0;;;;;;;19.6;64.1;100630;;;;
2021/07/26 02:54:36;;;;;;;7.7;7.0;;;;;;;19.5;64.8;100640;;;;
2021/07/26 02:56:36;;;;;;;7.7;7.0;;;;;;;19.4;65.3;100640;;;;
2021/07/26 03:04:36;;;;;;;7.7;7.0;;;;;;;19.3;64.7;100650;;;;
2021/07/26 03:08:37;;;;;;;7.7;7.0;;;;;;;19.4;62.9;100650;;;;
2021/07/26 03:12:36;;;;;;;8.4;7.6;;;;;;;19.5;62.2;100660;;;;
2021/07/26 03:14:36;;;;;;;8.4;7.6;;;;;;;19.4;62.1;100660;;;;
2021/07/26 03:16:36;;;;;;;8.4;7.6;;;;;;;19.3;65.2;100660;;;;
2021/07/26 03:26:37;;;;;;;8.4;7.6;;;;;;;19.2;64.2;100660;;;;
2021/07/26 03:28:37;;;;;;;8.4;7.6;;;;;;;19.3;64.7;100660;;;;
2021/07/26 03:32:36;;;;;;;8.2;7.4;;;;;;;19.4;62.7;100660;;;;
2021/07/26 03:34:36;;;;;;;8.2;7.4;;;;;;;19.1;65.2;100660;;;;
2021/07/26 03:40:37;;;;;;;8.2;7.4;;;;;;;19.0;64.3;100660;;;;
2021/07/26 03:48:36;;;;;;;8.2;7.4;;;;;;;19.1;64.3;100660;;;;
2021/07/26 03:54:36;;;;;;;8.7;7.9;;;;;;;19.2;65.0;100670;;;;
2021/07/26 03:56:36;;;;;;;8.7;7.9;;;;;;;19.0;67.3;100680;;;;
2021/07/26 04:02:36;;;;;;;8.7;7.9;;;;;;;19.1;65.6;100690;;;;
2021/07/26 04:04:37;;;;;;;8.7;7.9;;;;;;;19.0;65.6;100680;;;;
2021/07/26 04:08:39;;;;;;;8.7;7.9;;;;;;;18.9;67.2;100680;;;;
2021/07/26 04:10:39;;;;;;;8.7;7.9;;;;;;;19.0;66.8;100690;;;;
2021/07/26 04:22:37;;;;;;;7.9;7.1;;;;;;;18.9;66.7;100690;;;;
2021/07/26 04:24:36;;;;;;;7.9;7.1;;;;;;;19.0;65.9;100690;;;;
2021/07/26 04:32:36;;;;;;;7.9;7.0;;;;;;;19.2;65.9;100700;;;;
2021/07/26 04:34:36;;;;;;;7.9;7.0;;;;;;;19.1;66.5;100700;;;;
2021/07/26 04:36:36;;;;;;;7.9;7.0;;;;;;;19.2;66.1;100700;;;;
2021/07/26 04:38:37;;;;;;;7.9;7.0;;;;;;;19.1;66.1;100700;;;;
2021/07/26 04:44:39;;;;;;;7.9;7.0;;;;;;;19.0;65.9;100700;;;;
2021/07/26 04:46:36;;;;;;;7.9;7.0;;;;;;;19.2;66.6;100700;;;;
2021/07/26 04:48:37;;;;;;;7.9;7.0;;;;;;;19.0;66.9;100700;;;;
2021/07/26 04:50:37;;;;;;;7.9;7.0;;;;;;;19.2;65.5;100700;;;;
2021/07/26 04:54:37;;;;;;;8.3;7.5;;;;;;;19.1;66.8;100700;;;;
2021/07/26 04:56:36;;;;;;;8.3;7.5;;;;;;;19.2;65.7;100700;;;;
2021/07/26 05:02:36;;;;;;;8.3;7.5;;;;;;;19.4;66.2;100700;;;;
2021/07/26 05:04:37;;;;;;;8.3;7.5;;;;;;;19.2;68.1;100700;;;;
2021/07/26 05:08:36;;;;;;;8.3;7.5;;;;;;;19.1;66.7;100700;;;;
2021/07/26 05:10:37;;;;;;;8.3;7.5;;;;;;;19.3;67.1;100700;;;;
2021/07/26 05:12:36;;;;;;;9.3;6.7;;;;;;;19.4;65.8;100700;;;;
2021/07/26 05:14:36;;;;;;;9.3;6.7;;;;;;;19.2;68.1;100700;;;;
2021/07/26 05:16:36;;;;;;;9.3;6.7;;;;;;;19.3;67.3;100700;;;;
2021/07/26 05:20:36;;;;;;;9.3;6.7;;;;;;;19.2;67.9;100700;;;;
2021/07/26 05:24:36;;;;;;;9.3;6.7;;;;;;;19.1;68.3;100700;;;;
2021/07/26 05:26:37;;;;;;;9.3;6.7;;;;;;;19.2;67.5;100700;;;;
2021/07/26 05:28:36;;;;;;;9.3;6.7;;;;;;;19.1;66.7;100700;;;;
2021/07/26 05:30:36;;;;;;;9.3;6.7;;;;;;;19.2;67.2;100700;;;;
2021/07/26 05:32:37;;;;;;;8.0;7.2;;;;;;;19.3;66.3;100700;;;;
2021/07/26 05:34:36;;;;;;;8.0;7.2;;;;;;;19.2;66.4;100700;;;;
2021/07/26 05:36:36;;;;;;;8.0;7.2;;;;;;;19.3;65.4;100700;;;;
2021/07/26 05:46:36;;;;;;;8.0;7.2;;;;;;;19.4;66.3;100700;;;;
2021/07/26 05:48:36;;;;;;;8.0;7.2;;;;;;;19.5;65.7;100700;;;;
2021/07/26 05:54:37;;;;;;;9.0;7.4;;;;;;;19.4;67.0;100700;;;;
2021/07/26 05:56:40;;;;;;;9.0;7.4;;;;;;;19.3;67.7;100700;;;;
2021/07/26 06:04:37;;;;;;;9.0;7.4;;;;;;;19.5;67.7;100710;;;;
2021/07/26 06:08:37;;;;;;;9.0;7.4;;;;;;;19.2;69.5;100710;;;;
2021/07/26 06:10:37;;;;;;;9.0;7.4;;;;;;;19.3;68.5;100710;;;;
2021/07/26 06:14:37;;;;;;;7.9;6.5;;;;;;;19.5;68.6;100710;;;;
2021/07/26 06:18:37;;;;;;;7.9;6.5;;;;;;;19.6;67.9;100710;;;;
2021/07/26 06:22:37;;;;;;;7.9;6.5;;;;;;;19.8;68.0;100710;;;;
2021/07/26 06:24:36;;;;;;;7.9;6.5;;;;;;;19.9;67.8;100710;;;;
2021/07/26 06:26:37;;;;;;;7.9;6.5;;;;;;;20.0;67.3;100710;;;;
2021/07/26 06:28:37;;;;;;;7.9;6.5;;;;;;;20.1;67.4;100710;;;;
2021/07/26 06:32:37;;;;;;;7.8;6.7;;;;;;;20.2;65.8;100710;;;;
2021/07/26 06:34:37;;;;;;;7.8;6.7;;;;;;;20.3;66.2;100720;;;;
2021/07/26 06:46:36;;;;;;;7.8;6.7;;;;;;;20.4;64.9;100720;;;;
2021/07/26 06:48:37;;;;;;;7.8;6.7;;;;;;;20.5;65.2;100720;;;;
2021/07/26 06:50:37;;;;;;;7.8;6.7;;;;;;;20.6;64.9;100720;;;;
2021/07/26 06:54:37;;;;;;;7.6;6.9;;;;;;;20.5;64.4;100720;;;;
2021/07/26 06:56:37;;;;;;;7.6;6.9;;;;;;;20.7;63.9;100710;;;;
2021/07/26 07:00:37;;;;;;;7.6;6.9;;;;;;;20.8;64.0;100710;;;;
2021/07/26 07:04:42;;;;;;;7.6;6.9;;;;;;;20.7;64.3;100710;;;;
2021/07/26 07:06:37;;;;;;;7.6;6.9;;;;;;;20.9;64.4;100710;;;;
2021/07/26 07:12:37;;;;;;;7.7;7.0;;;;;;;21.0;63.8;100720;;;;
2021/07/26 07:14:37;;;;;;;7.7;7.0;;;;;;;21.1;63.6;100710;;;;
2021/07/26 07:18:37;;;;;;;7.7;7.0;;;;;;;21.2;63.6;100720;;;;
2021/07/26 07:22:37;;;;;;;7.7;7.0;;;;;;;21.1;63.6;100720;;;;
2021/07/26 07:24:37;;;;;;;7.7;7.0;;;;;;;21.2;63.4;100720;;;;
2021/07/26 07:26:37;;;;;;;7.7;7.0;;;;;;;21.3;62.7;100730;;;;
2021/07/26 07:28:37;;;;;;;7.7;7.0;;;;;;;21.2;62.5;100730;;;;
2021/07/26 07:30:37;;;;;;;7.7;7.0;;;;;;;21.4;62.1;100730;;;;
2021/07/26 07:34:37;;;;;;;6.5;5.9;;;;;;;21.5;62.6;100730;;;;
2021/07/26 07:40:37;;;;;;;6.5;5.9;;;;;;;21.6;62.8;100740;;;;
2021/07/26 07:42:37;;;;;;;6.5;5.9;;;;;;;21.8;62.2;100740;;;;
2021/07/26 07:44:37;;;;;;;6.5;5.9;;;;;;;21.9;61.8;100730;;;;
2021/07/26 07:46:37;;;;;;;6.5;5.9;;;;;;;22.0;61.4;100730;;;;
2021/07/26 07:54:37;;;;;;;4.8;4.3;;;;;;;22.1;61.4;100730;;;;
2021/07/26 07:56:37;;;;;;;4.8;4.3;;;;;;;22.3;60.8;100730;;;;
2021/07/26 08:02:37;;;;;;;4.8;4.3;;;;;;;22.4;60.1;100740;;;;
2021/07/26 08:10:37;;;;;;;4.8;4.3;;;;;;;22.6;59.3;100730;;;;
2021/07/26 08:12:37;;;;;;;4.1;3.7;;;;;;;22.4;59.2;100740;;;;
2021/07/26 08:14:37;;;;;;;4.1;3.7;;;;;;;22.5;59.3;100740;;;;
2021/07/26 08:16:40;;;;;;;4.1;3.7;;;;;;;22.6;58.4;100750;;;;
2021/07/26 08:18:37;;;;;;;4.1;3.7;;;;;;;22.7;58.9;100750;;;;
2021/07/26 08:20:37;;;;;;;4.1;3.7;;;;;;;22.5;58.5;100750;;;;
2021/07/26 08:24:37;;;;;;;4.1;3.7;;;;;;;22.6;58.0;100740;;;;
2021/07/26 08:28:37;;;;;;;4.1;3.7;;;;;;;22.9;58.1;100750;;;;
2021/07/26 08:32:37;;;;;;;4.5;3.5;;;;;;;23.0;57.4;100750;;;;
2021/07/26 08:34:37;;;;;;;4.5;3.5;;;;;;;23.2;57.4;100740;;;;
2021/07/26 08:38:37;;;;;;;4.5;3.5;;;;;;;23.1;57.3;100740;;;;
2021/07/26 08:40:37;;;;;;;4.5;3.5;;;;;;;23.2;57.0;100750;;;;
2021/07/26 08:42:37;;;;;;;4.5;3.5;;;;;;;23.3;56.5;100750;;;;
2021/07/26 08:44:37;;;;;;;4.5;3.5;;;;;;;23.4;56.7;100740;;;;
2021/07/26 08:46:37;;;;;;;4.5;3.5;;;;;;;23.6;56.7;100740;;;;
2021/07/26 08:50:37;;;;;;;4.5;3.5;;;;;;;23.7;55.7;100750;;;;
2021/07/26 08:52:37;;;;;;;3.8;3.1;;;;;;;23.8;55.7;100750;;;;
2021/07/26 08:54:37;;;;;;;3.8;3.1;;;;;;;23.9;54.7;100750;;;;
2021/07/26 08:56:37;;;;;;;3.8;3.1;;;;;;;23.8;55.2;100750;;;;
2021/07/26 09:00:38;;;;;;;3.8;3.1;;;;;;;23.7;54.2;100750;;;;
2021/07/26 09:02:37;;;;;;;3.8;3.1;;;;;;;23.8;55.4;100750;;;;
2021/07/26 09:04:37;;;;;;;3.8;3.1;;;;;;;23.9;54.3;100750;;;;
2021/07/26 09:06:37;;;;;;;3.8;3.1;;;;;;;24.0;54.6;100750;;;;
2021/07/26 09:08:37;;;;;;;3.8;3.1;;;;;;;24.1;53.4;100750;;;;
2021/07/26 09:10:37;;;;;;;3.8;3.1;;;;;;;24.0;53.0;100750;;;;
2021/07/26 09:12:37;;;;;;;2.9;2.5;;;;;;;24.1;53.7;100750;;;;
2021/07/26 09:14:37;;;;;;;2.9;2.5;;;;;;;24.0;52.9;100750;;;;
2021/07/26 09:16:37;;;;;;;2.9;2.5;;;;;;;24.2;53.2;100750;;;;
2021/07/26 09:18:37;;;;;;;2.9;2.5;;;;;;;24.3;52.8;100750;;;;
2021/07/26 09:20:39;;;;;;;2.9;2.5;;;;;;;24.4;51.9;100750;;;;
2021/07/26 09:22:37;;;;;;;2.9;2.5;;;;;;;24.1;51.9;100750;;;;
2021/07/26 09:24:37;;;;;;;2.9;2.5;;;;;;;23.9;53.0;100760;;;;
2021/07/26 09:28:37;;;;;;;2.9;2.5;;;;;;;24.0;52.7;100760;;;;
2021/07/26 09:30:37;;;;;;;2.9;2.5;;;;;;;23.8;53.0;100760;;;;
2021/07/26 09:32:38;;;;;;;3.1;2.5;;;;;;;23.7;52.9;100760;;;;
2021/07/26 09:34:37;;;;;;;3.1;2.5;;;;;;;23.5;54.0;100760;;;;
2021/07/26 09:36:37;;;;;;;3.1;2.5;;;;;;;23.6;53.5;100770;;;;
2021/07/26 09:40:37;;;;;;;3.1;2.5;;;;;;;23.7;53.6;100760;;;;
2021/07/26 09:42:37;;;;;;;3.1;2.5;;;;;;;23.8;53.8;100770;;;;
2021/07/26 09:44:37;;;;;;;3.1;2.5;;;;;;;23.9;53.6;100760;;;;
2021/07/26 09:46:39;;;;;;;3.1;2.5;;;;;;;23.8;54.2;100760;;;;
2021/07/26 09:48:46;;;;;;;3.1;2.5;;;;;;;24.1;53.5;100760;;;;
2021/07/26 09:52:37;;;;;;;3.5;2.6;;;;;;;24.0;53.2;100760;;;;
2021/07/26 09:54:37;;;;;;;3.5;2.6;;;;;;;24.1;53.7;100770;;;;
2021/07/26 09:56:37;;;;;;;3.5;2.6;;;;;;;24.4;52.8;100770;;;;
2021/07/26 09:58:37;;;;;;;3.5;2.6;;;;;;;24.0;52.8;100760;;;;
2021/07/26 10:00:37;;;;;;;3.5;2.6;;;;;;;24.2;52.8;100770;;;;
2021/07/26 10:06:37;;;;;;;3.5;2.6;;;;;;;24.3;52.6;100770;;;;
2021/07/26 10:08:37;;;;;;;3.5;2.6;;;;;;;24.4;52.6;100770;;;;
2021/07/26 10:10:37;;;;;;;3.5;2.6;;;;;;;24.5;52.5;100770;;;;
2021/07/26 10:12:37;;;;;;;2.2;2.0;;;;;;;24.8;52.2;100780;;;;
2021/07/26 10:14:37;;;;;;;2.2;2.0;;;;;;;24.6;52.1;100780;;;;
2021/07/26 10:16:37;;;;;;;2.2;2.0;;;;;;;24.5;52.4;100780;;;;
2021/07/26 10:18:37;;;;;;;2.2;2.0;;;;;;;24.6;53.3;100780;;;;
2021/07/26 10:22:37;;;;;;;2.2;2.0;;;;;;;24.7;51.9;100780;;;;
2021/07/26 10:24:37;;;;;;;2.2;2.0;;;;;;;24.8;52.4;100780;;;;
2021/07/26 10:26:37;;;;;;;2.2;2.0;;;;;;;24.7;51.2;100780;;;;
2021/07/26 10:28:37;;;;;;;2.2;2.0;;;;;;;25.0;51.2;100780;;;;
2021/07/26 10:30:37;;;;;;;2.2;2.0;;;;;;;25.2;51.6;100770;;;;
2021/07/26 10:34:37;;;;;;;2.7;2.5;;;;;;;25.0;50.7;100770;;;;
2021/07/26 10:40:37;;;;;;;2.7;2.5;;;;;;;25.1;50.6;100770;;;;
2021/07/26 10:42:37;;;;;;;2.7;2.5;;;;;;;25.0;51.0;100770;;;;
2021/07/26 10:46:37;;;;;;;2.7;2.5;;;;;;;25.2;50.6;100770;;;;
2021/07/26 10:48:37;;;;;;;2.7;2.5;;;;;;;25.5;50.4;100780;;;;
2021/07/26 10:56:37;;;;;;;4.2;3.2;;;;;;;25.6;49.8;100770;;;;
2021/07/26 11:00:37;;;;;;;4.2;3.2;;;;;;;25.5;48.8;100770;;;;
2021/07/26 11:02:37;;;;;;;4.2;3.2;;;;;;;25.2;51.4;100790;;;;
2021/07/26 11:04:37;;;;;;;4.2;3.2;;;;;;;25.4;49.7;100780;;;;
2021/07/26 11:08:37;;;;;;;4.2;3.2;;;;;;;25.6;49.9;100770;;;;
2021/07/26 11:14:37;;;;;;;3.3;2.8;;;;;;;25.5;49.8;100770;;;;
2021/07/26 11:16:37;;;;;;;3.3;2.8;;;;;;;25.2;49.0;100780;;;;
2021/07/26 11:18:37;;;;;;;3.3;2.8;;;;;;;25.4;49.5;100780;;;;
2021/07/26 11:20:37;;;;;;;3.3;2.8;;;;;;;25.5;49.8;100780;;;;
2021/07/26 11:22:38;;;;;;;3.3;2.8;;;;;;;25.4;50.0;100770;;;;
2021/07/26 11:24:37;;;;;;;3.3;2.8;;;;;;;25.5;49.9;100770;;;;
2021/07/26 11:26:37;;;;;;;3.3;2.8;;;;;;;25.8;49.6;100770;;;;
2021/07/26 11:28:37;;;;;;;3.3;2.8;;;;;;;25.7;50.8;100770;;;;
2021/07/26 11:30:37;;;;;;;3.3;2.8;;;;;;;25.8;49.8;100780;;;;
2021/07/26 11:34:37;;;;;;;3.4;2.9;;;;;;;25.7;48.8;100770;;;;
2021/07/26 11:36:37;;;;;;;3.4;2.9;;;;;;;25.4;48.3;100760;;;;
2021/07/26 11:38:37;;;;;;;3.4;2.9;;;;;;;25.8;48.9;100770;;;;
2021/07/26 11:40:37;;;;;;;3.4;2.9;;;;;;;25.6;49.4;100760;;;;
2021/07/26 11:42:39;;;;;;;3.4;2.9;;;;;;;25.9;49.1;100760;;;;
2021/07/26 11:44:37;;;;;;;3.4;2.9;;;;;;;26.1;47.9;100760;;;;
2021/07/26 11:46:37;;;;;;;3.4;2.9;;;;;;;25.9;48.5;100770;;;;
2021/07/26 11:48:37;;;;;;;3.4;2.9;;;;;;;25.8;49.2;100760;;;;
2021/07/26 11:50:38;;;;;;;3.4;2.9;;;;;;;25.7;47.6;100760;;;;
2021/07/26 11:52:37;;;;;;;3.2;2.9;;;;;;;25.8;49.0;100770;;;;
2021/07/26 11:54:37;;;;;;;3.2;2.9;;;;;;;25.7;48.2;100770;;;;
2021/07/26 11:56:37;;;;;;;3.2;2.9;;;;;;;25.8;47.9;100760;;;;
2021/07/26 11:58:37;;;;;;;3.2;2.9;;;;;;;25.9;48.7;100760;;;;
2021/07/26 12:04:37;;;;;;;3.2;2.9;;;;;;;25.6;48.2;100770;;;;
2021/07/26 12:06:37;;;;;;;3.2;2.9;;;;;;;25.9;47.4;100760;;;;
2021/07/26 12:08:37;;;;;;;3.2;2.9;;;;;;;25.8;48.7;100760;;;;
2021/07/26 12:10:37;;;;;;;3.2;2.9;;;;;;;25.6;47.9;100760;;;;
2021/07/26 12:12:37;;;;;;;4.2;3.1;;;;;;;25.9;47.2;100750;;;;
2021/07/26 12:14:37;;;;;;;4.2;3.1;;;;;;;25.8;47.2;100760;;;;
2021/07/26 12:16:37;;;;;;;4.2;3.1;;;;;;;26.0;47.3;100760;;;;
2021/07/26 12:18:37;;;;;;;4.2;3.1;;;;;;;25.8;47.5;100760;;;;
2021/07/26 12:20:37;;;;;;;4.2;3.1;;;;;;;25.9;48.2;100770;;;;
2021/07/26 12:22:46;;;;;;;4.2;3.1;;;;;;;26.0;47.0;100760;;;;
2021/07/26 12:24:37;;;;;;;4.2;3.1;;;;;;;26.3;47.9;100750;;;;
2021/07/26 12:26:37;;;;;;;4.2;3.1;;;;;;;26.1;46.4;100760;;;;
2021/07/26 12:28:37;;;;;;;4.2;3.1;;;;;;;26.2;47.8;100760;;;;
2021/07/26 12:32:37;;;;;;;3.8;3.4;;;;;;;26.4;47.5;100750;;;;
2021/07/26 12:36:37;;;;;;;3.8;3.4;;;;;;;26.3;45.4;100750;;;;
2021/07/26 12:38:37;;;;;;;3.8;3.4;;;;;;;26.7;47.3;100750;;;;
2021/07/26 12:40:37;;;;;;;3.8;3.4;;;;;;;26.6;47.4;100760;;;;
2021/07/26 12:42:37;;;;;;;3.8;3.4;;;;;;;26.8;45.6;100750;;;;
2021/07/26 12:44:37;;;;;;;3.8;3.4;;;;;;;26.5;46.3;100760;;;;
2021/07/26 12:46:37;;;;;;;3.8;3.4;;;;;;;26.7;47.0;100770;;;;
2021/07/26 12:48:37;;;;;;;3.8;3.4;;;;;;;26.6;46.3;100760;;;;
2021/07/26 12:50:37;;;;;;;3.8;3.4;;;;;;;26.7;46.0;100760;;;;
2021/07/26 12:54:37;;;;;;;3.4;3.1;;;;;;;26.8;47.8;100750;;;;
2021/07/26 12:58:37;;;;;;;3.4;3.1;;;;;;;27.0;46.2;100750;;;;
2021/07/26 13:02:37;;;;;;;3.4;3.1;;;;;;;26.7;44.6;100760;;;;
2021/07/26 13:04:37;;;;;;;3.4;3.1;;;;;;;26.6;45.3;100740;;;;
2021/07/26 13:06:37;;;;;;;3.4;3.1;;;;;;;26.9;46.0;100740;;;;
2021/07/26 13:08:37;;;;;;;3.4;3.1;;;;;;;26.8;44.8;100740;;;;
2021/07/26 13:10:38;;;;;;;3.4;3.1;;;;;;;26.7;46.3;100750;;;;
2021/07/26 13:12:37;;;;;;;3.5;2.9;;;;;;;26.8;45.2;100740;;;;
2021/07/26 13:14:37;;;;;;;3.5;2.9;;;;;;;26.9;45.2;100730;;;;
2021/07/26 13:16:37;;;;;;;3.5;2.9;;;;;;;27.1;46.9;100740;;;;
2021/07/26 13:18:37;;;;;;;3.5;2.9;;;;;;;27.2;45.0;100740;;;;
2021/07/26 13:20:37;;;;;;;3.5;2.9;;;;;;;27.5;46.1;100740;;;;
2021/07/26 13:22:37;;;;;;;3.5;2.9;;;;;;;27.4;44.2;100740;;;;
2021/07/26 13:24:37;;;;;;;3.5;2.9;;;;;;;27.3;44.3;100740;;;;
2021/07/26 13:26:37;;;;;;;3.5;2.9;;;;;;;27.0;44.9;100730;;;;
2021/07/26 13:28:37;;;;;;;3.5;2.9;;;;;;;26.9;44.1;100740;;;;
2021/07/26 13:30:37;;;;;;;3.5;2.9;;;;;;;27.1;46.1;100740;;;;
2021/07/26 13:32:37;;;;;;;4.6;3.4;;;;;;;26.9;44.8;100730;;;;
2021/07/26 13:34:37;;;;;;;4.6;3.4;;;;;;;26.8;44.4;100740;;;;
2021/07/26 13:36:37;;;;;;;4.6;3.4;;;;;;;26.9;45.5;100730;;;;
2021/07/26 13:38:37;;;;;;;4.6;3.4;;;;;;;26.6;45.0;100740;;;;
2021/07/26 13:40:37;;;;;;;4.6;3.4;;;;;;;26.7;44.7;100730;;;;
2021/07/26 13:42:37;;;;;;;4.6;3.4;;;;;;;26.8;45.5;100730;;;;
2021/07/26 13:44:37;;;;;;;4.6;3.4;;;;;;;26.9;45.9;100730;;;;
2021/07/26 13:46:37;;;;;;;4.6;3.4;;;;;;;27.1;46.5;100730;;;;
2021/07/26 13:48:37;;;;;;;4.6;3.4;;;;;;;27.2;45.7;100730;;;;
2021/07/26 13:50:37;;;;;;;4.6;3.4;;;;;;;27.1;44.9;100730;;;;
2021/07/26 13:52:39;;;;;;;4.1;3.4;;;;;;;27.3;44.3;100720;;;;
2021/07/26 13:54:37;;;;;;;4.1;3.4;;;;;;;27.5;46.2;100730;;;;
2021/07/26 13:56:37;;;;;;;4.1;3.4;;;;;;;27.6;46.0;100730;;;;
2021/07/26 13:58:37;;;;;;;4.1;3.4;;;;;;;27.7;46.3;100740;;;;
2021/07/26 14:00:37;;;;;;;4.1;3.4;;;;;;;27.8;47.5;100740;;;;
2021/07/26 14:02:37;;;;;;;4.1;3.4;;;;;;;27.5;47.5;100730;;;;
2021/07/26 14:04:37;;;;;;;4.1;3.4;;;;;;;27.6;47.2;100730;;;;
2021/07/26 14:06:37;;;;;;;4.1;3.4;;;;;;;28.0;48.3;100730;;;;
2021/07/26 14:08:37;;;;;;;4.1;3.4;;;;;;;28.2;47.4;100730;;;;
2021/07/26 14:10:37;;;;;;;4.1;3.4;;;;;;;27.9;46.8;100730;;;;
2021/07/26 14:14:37;;;;;;;9.2;7.8;;;;;;;28.1;45.8;100730;;;;
2021/07/26 14:16:37;;;;;;;9.2;7.8;;;;;;;27.9;47.0;100730;;;;
2021/07/26 14:18:37;;;;;;;9.2;7.8;;;;;;;27.6;47.2;100730;;;;
2021/07/26 14:20:37;;;;;;;9.2;7.8;;;;;;;27.9;46.3;100740;;;;
2021/07/26 14:22:38;;;;;;;9.2;7.8;;;;;;;28.1;45.9;100740;;;;
2021/07/26 14:28:37;;;;;;;9.2;7.8;;;;;;;27.8;46.3;100740;;;;
2021/07/26 14:30:38;;;;;;;9.2;7.8;;;;;;;27.9;46.7;100740;;;;
2021/07/26 14:34:37;;;;;;;7.5;6.8;;;;;;;28.1;46.3;100740;;;;
2021/07/26 14:36:37;;;;;;;7.5;6.8;;;;;;;28.0;46.1;100740;;;;
2021/07/26 14:38:37;;;;;;;7.5;6.8;;;;;;;28.1;44.7;100740;;;;
2021/07/26 14:40:37;;;;;;;7.5;6.8;;;;;;;28.3;47.1;100740;;;;
2021/07/26 14:42:37;;;;;;;7.5;6.8;;;;;;;28.6;45.7;100740;;;;
2021/07/26 14:44:37;;;;;;;7.5;6.8;;;;;;;28.3;44.0;100730;;;;
2021/07/26 14:46:37;;;;;;;7.5;6.8;;;;;;;28.4;43.8;100740;;;;
2021/07/26 14:48:37;;;;;;;7.5;6.8;;;;;;;28.3;43.9;100730;;;;
2021/07/26 14:50:37;;;;;;;7.5;6.8;;;;;;;28.4;44.7;100730;;;;
2021/07/26 14:54:37;;;;;;;6.7;5.6;;;;;;;28.3;44.6;100730;;;;
2021/07/26 14:56:37;;;;;;;6.7;5.6;;;;;;;28.0;44.3;100730;;;;
2021/07/26 14:58:37;;;;;;;6.7;5.6;;;;;;;28.1;46.3;100740;;;;
2021/07/26 15:00:37;;;;;;;6.7;5.6;;;;;;;27.5;44.9;100740;;;;
2021/07/26 15:02:37;;;;;;;6.7;5.6;;;;;;;27.2;47.4;100750;;;;
2021/07/26 15:04:37;;;;;;;6.7;5.6;;;;;;;27.1;46.8;100760;;;;
2021/07/26 15:06:40;;;;;;;6.7;5.6;;;;;;;26.8;47.5;100780;;;;
2021/07/26 15:10:37;;;;;;;6.7;5.6;;;;;;;26.5;49.2;100790;;;;
2021/07/26 15:12:37;;;;;;;6.7;6.0;;;;;;;26.3;49.1;100790;;;;
2021/07/26 15:14:37;;;;;;;6.7;6.0;;;;;;;25.8;48.9;100800;;;;
2021/07/26 15:16:37;;;;;;;6.7;6.0;;;;;;;25.5;48.4;100780;;;;
2021/07/26 15:18:37;;;;;;;6.7;6.0;;;;;;;25.2;48.4;100800;;;;
2021/07/26 15:20:37;;;;;;;6.7;6.0;;;;;;;25.0;50.2;100800;;;;
2021/07/26 15:22:37;;;;;;;6.7;6.0;;;;;;;25.5;49.4;100790;;;;
2021/07/26 15:24:37;;;;;;;6.7;6.0;;;;;;;25.6;49.6;100790;;;;
2021/07/26 15:26:37;;;;;;;6.7;6.0;;;;;;;25.8;48.8;100790;;;;
2021/07/26 15:28:37;;;;;;;6.7;6.0;;;;;;;26.0;46.9;100790;;;;
2021/07/26 15:30:37;;;;;;;6.7;6.0;;;;;;;25.9;47.0;100780;;;;
2021/07/26 15:34:37;;;;;;;3.5;2.8;;;;;;;26.1;48.1;100780;;;;
2021/07/26 15:36:37;;;;;;;3.5;2.8;;;;;;;26.0;47.7;100780;;;;
2021/07/26 15:38:37;;;;;;;3.5;2.8;;;;;;;26.2;47.5;100780;;;;
2021/07/26 15:40:38;;;;;;;3.5;2.8;;;;;;;25.7;48.4;100770;;;;
2021/07/26 15:42:37;;;;;;;3.5;2.8;;;;;;;25.4;49.2;100770;;;;
2021/07/26 15:44:37;;;;;;;3.5;2.8;;;;;;;25.5;49.4;100770;;;;
2021/07/26 15:48:37;;;;;;;3.5;2.8;;;;;;;25.7;48.8;100770;;;;
2021/07/26 15:52:37;;;;;;;4.3;3.9;;;;;;;25.4;48.7;100760;;;;
2021/07/26 15:54:37;;;;;;;4.3;3.9;;;;;;;25.6;48.5;100760;;;;
2021/07/26 15:56:40;;;;;;;4.3;3.9;;;;;;;25.3;49.3;100760;;;;
2021/07/26 15:58:37;;;;;;;4.3;3.9;;;;;;;25.6;48.8;100760;;;;
2021/07/26 16:02:37;;;;;;;4.3;3.9;;;;;;;25.8;48.3;100760;;;;
2021/07/26 16:06:41;;;;;;;4.3;3.9;;;;;;;25.9;49.3;100770;;;;
2021/07/26 16:08:37;;;;;;;4.3;3.9;;;;;;;26.0;47.9;100770;;;;
2021/07/26 16:10:37;;;;;;;4.3;3.9;;;;;;;26.4;48.4;100770;;;;
2021/07/26 16:14:37;;;;;;;4.4;4.0;;;;;;;26.7;45.9;100780;;;;
2021/07/26 16:16:37;;;;;;;4.4;4.0;;;;;;;27.0;45.9;100770;;;;
2021/07/26 16:18:37;;;;;;;4.4;4.0;;;;;;;27.1;43.3;100760;;;;
2021/07/26 16:20:37;;;;;;;4.4;4.0;;;;;;;27.4;42.3;100760;;;;
2021/07/26 16:22:37;;;;;;;4.4;4.0;;;;;;;27.7;43.3;100760;;;;
2021/07/26 16:24:37;;;;;;;4.4;4.0;;;;;;;28.0;43.0;100760;;;;
2021/07/26 16:26:37;;;;;;;4.4;4.0;;;;;;;28.1;42.0;100760;;;;
2021/07/26 16:28:37;;;;;;;4.4;4.0;;;;;;;28.4;42.0;100750;;;;
2021/07/26 16:30:37;;;;;;;4.4;4.0;;;;;;;28.8;40.2;100750;;;;
2021/07/26 16:32:37;;;;;;;3.0;2.7;;;;;;;29.1;40.0;100750;;;;
2021/07/26 16:36:37;;;;;;;3.0;2.7;;;;;;;29.0;39.5;100760;;;;
2021/07/26 16:38:37;;;;;;;3.0;2.7;;;;;;;29.4;41.6;100760;;;;
2021/07/26 16:40:37;;;;;;;3.0;2.7;;;;;;;29.6;41.2;100750;;;;
2021/07/26 16:42:37;;;;;;;3.0;2.7;;;;;;;29.7;40.7;100750;;;;
2021/07/26 16:44:37;;;;;;;3.0;2.7;;;;;;;29.6;40.4;100750;;;;
2021/07/26 16:46:37;;;;;;;3.0;2.7;;;;;;;29.2;40.3;100760;;;;
2021/07/26 16:50:37;;;;;;;3.0;2.7;;;;;;;29.9;39.5;100750;;;;
2021/07/26 16:52:37;;;;;;;6.2;5.7;;;;;;;29.8;39.9;100750;;;;
2021/07/26 16:54:37;;;;;;;6.2;5.7;;;;;;;29.7;40.6;100750;;;;
2021/07/26 16:56:37;;;;;;;6.2;5.7;;;;;;;29.4;40.8;100750;;;;
2021/07/26 16:58:37;;;;;;;6.2;5.7;;;;;;;29.2;41.3;100760;;;;
2021/07/26 17:02:37;;;;;;;6.2;5.7;;;;;;;29.1;42.3;100760;;;;
2021/07/26 17:04:37;;;;;;;6.2;5.7;;;;;;;29.4;41.5;100760;;;;
2021/07/26 17:06:37;;;;;;;6.2;5.7;;;;;;;29.3;41.1;100770;;;;
2021/07/26 17:08:37;;;;;;;6.2;5.7;;;;;;;29.1;42.5;100770;;;;
2021/07/26 17:10:40;;;;;;;6.2;5.7;;;;;;;29.3;42.4;100770;;;;
2021/07/26 17:12:37;;;;;;;8.4;7.7;;;;;;;28.8;42.1;100780;;;;
2021/07/26 17:14:37;;;;;;;8.4;7.7;;;;;;;28.3;43.6;100770;;;;
2021/07/26 17:16:37;;;;;;;8.4;7.7;;;;;;;29.1;42.5;100770;;;;
2021/07/26 17:18:37;;;;;;;8.4;7.7;;;;;;;29.0;41.9;100770;;;;
2021/07/26 17:20:37;;;;;;;8.4;7.7;;;;;;;29.1;42.2;100780;;;;
2021/07/26 17:22:37;;;;;;;8.4;7.7;;;;;;;28.9;42.5;100780;;;;
2021/07/26 17:26:37;;;;;;;8.4;7.7;;;;;;;28.5;43.5;100780;;;;
2021/07/26 17:30:37;;;;;;;8.4;7.7;;;;;;;28.3;43.4;100770;;;;
2021/07/26 17:32:37;;;;;;;10.3;9.5;;;;;;;28.1;44.6;100780;;;;
2021/07/26 17:34:37;;;;;;;10.3;9.5;;;;;;;27.8;44.5;100770;;;;
2021/07/26 17:36:37;;;;;;;10.3;9.5;;;;;;;27.3;46.2;100770;;;;
2021/07/26 17:38:37;;;;;;;10.3;9.5;;;;;;;27.0;46.8;100770;;;;
2021/07/26 17:40:37;;;;;;;10.3;9.5;;;;;;;26.8;47.3;100770;;;;
2021/07/26 17:42:37;;;;;;;10.3;9.5;;;;;;;26.6;47.6;100780;;;;
2021/07/26 17:44:37;;;;;;;10.3;9.5;;;;;;;26.4;48.2;100780;;;;
2021/07/26 17:46:37;;;;;;;10.3;9.5;;;;;;;26.2;48.2;100780;;;;
2021/07/26 17:48:37;;;;;;;10.3;9.5;;;;;;;26.1;48.3;100780;;;;
2021/07/26 17:50:37;;;;;;;10.3;9.5;;;;;;;26.2;48.7;100780;;;;
2021/07/26 17:52:39;;;;;;;12.9;11.7;;;;;;;26.0;48.5;100780;;;;